sensor_id;sensor_type;location;lat;lon;timestamp;pressure;altitude;pressure_sealevel;temperature;humidity
38033;BME280;23841;48.524;1.342;2023-04-26T00:00:36;99334.47;;;15.19;48.69
38033;BME280;23841;48.524;1.342;2023-04-26T00:03:06;99327.28;;;15.19;48.65
38033;BME280;23841;48.524;1.342;2023-04-26T00:05:31;99333.59;;;15.18;48.50
38033;BME280;23841;48.524;1.342;2023-04-26T00:07:57;99338.00;;;15.19;48.55
38033;BME280;23841;48.524;1.342;2023-04-26T00:10:23;99338.97;;;15.17;48.62
38033;BME280;23841;48.524;1.342;2023-04-26T00:12:50;99337.13;;;15.19;48.36
38033;BME280;23841;48.524;1.342;2023-04-26T00:15:16;99331.84;;;15.17;48.57
38033;BME280;23841;48.524;1.342;2023-04-26T00:17:42;99328.28;;;15.17;48.51
38033;BME280;23841;48.524;1.342;2023-04-26T00:20:09;99328.28;;;15.17;48.38
38033;BME280;23841;48.524;1.342;2023-04-26T00:22:36;99322.94;;;15.17;48.67
38033;BME280;23841;48.524;1.342;2023-04-26T00:25:01;99321.22;;;15.16;48.42
38033;BME280;23841;48.524;1.342;2023-04-26T00:27:27;99323.88;;;15.16;48.54
38033;BME280;23841;48.524;1.342;2023-04-26T00:29:52;99317.69;;;15.14;48.46
38033;BME280;23841;48.524;1.342;2023-04-26T00:32:18;99307.91;;;15.14;48.32
38033;BME280;23841;48.524;1.342;2023-04-26T00:34:43;99310.50;;;15.16;48.29
38033;BME280;23841;48.524;1.342;2023-04-26T00:37:08;99309.63;;;15.15;48.40
38033;BME280;23841;48.524;1.342;2023-04-26T00:39:34;99306.94;;;15.15;48.34
38033;BME280;23841;48.524;1.342;2023-04-26T00:41:59;99301.59;;;15.15;48.34
38033;BME280;23841;48.524;1.342;2023-04-26T00:44:25;99289.16;;;15.14;48.28
38033;BME280;23841;48.524;1.342;2023-04-26T00:46:52;99282.94;;;15.14;48.28
38033;BME280;23841;48.524;1.342;2023-04-26T00:49:21;99282.06;;;15.13;48.28
38033;BME280;23841;48.524;1.342;2023-04-26T00:51:47;99284.75;;;15.13;48.44
38033;BME280;23841;48.524;1.342;2023-04-26T00:54:13;99279.38;;;15.13;48.40
38033;BME280;23841;48.524;1.342;2023-04-26T00:56:40;99278.53;;;15.13;48.19
38033;BME280;23841;48.524;1.342;2023-04-26T00:59:06;99289.22;;;15.13;48.25
38033;BME280;23841;48.524;1.342;2023-04-26T01:01:31;99282.13;;;15.12;48.16
38033;BME280;23841;48.524;1.342;2023-04-26T01:03:57;99282.13;;;15.12;48.07
38033;BME280;23841;48.524;1.342;2023-04-26T01:06:23;99279.44;;;15.12;48.25
38033;BME280;23841;48.524;1.342;2023-04-26T01:08:52;99287.47;;;15.12;48.32
38033;BME280;23841;48.524;1.342;2023-04-26T01:11:20;99280.31;;;15.12;48.47
38033;BME280;23841;48.524;1.342;2023-04-26T01:13:46;99276.78;;;15.12;48.29
38033;BME280;23841;48.524;1.342;2023-04-26T01:16:14;99274.09;;;15.12;48.24
38033;BME280;23841;48.524;1.342;2023-04-26T01:18:41;99271.50;;;15.10;48.32
38033;BME280;23841;48.524;1.342;2023-04-26T01:21:07;99271.56;;;15.09;48.11
38033;BME280;23841;48.524;1.342;2023-04-26T01:23:32;99273.28;;;15.10;48.33
38033;BME280;23841;48.524;1.342;2023-04-26T01:25:57;99269.81;;;15.08;48.21
38033;BME280;23841;48.524;1.342;2023-04-26T01:28:23;99272.56;;;15.06;48.14
38033;BME280;23841;48.524;1.342;2023-04-26T01:30:48;99276.94;;;15.07;48.10
38033;BME280;23841;48.524;1.342;2023-04-26T01:33:14;99277.91;;;15.06;48.06
38033;BME280;23841;48.524;1.342;2023-04-26T01:35:40;99274.34;;;15.06;48.38
38033;BME280;23841;48.524;1.342;2023-04-26T01:38:06;99270.81;;;15.05;48.08
38033;BME280;23841;48.524;1.342;2023-04-26T01:40:31;99281.50;;;15.05;48.06
38033;BME280;23841;48.524;1.342;2023-04-26T01:42:56;99283.25;;;15.06;48.14
38033;BME280;23841;48.524;1.342;2023-04-26T01:45:22;99272.56;;;15.06;48.18
38033;BME280;23841;48.524;1.342;2023-04-26T01:47:48;99278.91;;;15.04;48.04
38033;BME280;23841;48.524;1.342;2023-04-26T01:50:13;99277.97;;;15.05;48.21
38033;BME280;23841;48.524;1.342;2023-04-26T01:52:39;99280.66;;;15.05;48.12
38033;BME280;23841;48.524;1.342;2023-04-26T01:55:04;99278.81;;;15.05;47.99
38033;BME280;23841;48.524;1.342;2023-04-26T01:57:30;99279.69;;;15.06;48.09
38033;BME280;23841;48.524;1.342;2023-04-26T01:59:55;99279.69;;;15.06;48.09
38033;BME280;23841;48.524;1.342;2023-04-26T02:02:21;99277.00;;;15.06;48.09
38033;BME280;23841;48.524;1.342;2023-04-26T02:04:46;99275.28;;;15.05;48.04
38033;BME280;23841;48.524;1.342;2023-04-26T02:07:11;99278.91;;;15.04;48.06
38033;BME280;23841;48.524;1.342;2023-04-26T02:09:37;99276.16;;;15.05;48.18
38033;BME280;23841;48.524;1.342;2023-04-26T02:12:02;99271.66;;;15.06;48.10
38033;BME280;23841;48.524;1.342;2023-04-26T02:14:28;99270.81;;;15.05;48.25
38033;BME280;23841;48.524;1.342;2023-04-26T02:16:53;99262.84;;;15.04;48.07
38033;BME280;23841;48.524;1.342;2023-04-26T02:19:19;99255.75;;;15.02;47.97
38033;BME280;23841;48.524;1.342;2023-04-26T02:21:51;99254.88;;;15.02;48.16
38033;BME280;23841;48.524;1.342;2023-04-26T02:24:17;99248.72;;;15.00;48.22
38033;BME280;23841;48.524;1.342;2023-04-26T02:26:42;99250.47;;;15.01;48.26
38033;BME280;23841;48.524;1.342;2023-04-26T02:29:07;99243.28;;;15.01;48.27
38033;BME280;23841;48.524;1.342;2023-04-26T02:31:33;99241.50;;;15.02;48.20
38033;BME280;23841;48.524;1.342;2023-04-26T02:33:58;99236.22;;;15.00;48.05
38033;BME280;23841;48.524;1.342;2023-04-26T02:36:23;99235.34;;;15.00;48.07
38033;BME280;23841;48.524;1.342;2023-04-26T02:38:50;99235.34;;;15.00;47.99
38033;BME280;23841;48.524;1.342;2023-04-26T02:41:15;99238.97;;;14.99;48.08
38033;BME280;23841;48.524;1.342;2023-04-26T02:43:41;99245.19;;;14.99;48.20
38033;BME280;23841;48.524;1.342;2023-04-26T02:46:06;99235.41;;;14.98;48.36
38033;BME280;23841;48.524;1.342;2023-04-26T02:48:32;99227.38;;;14.98;48.40
38033;BME280;23841;48.524;1.342;2023-04-26T02:50:57;99220.28;;;14.97;48.17
38033;BME280;23841;48.524;1.342;2023-04-26T02:53:23;99221.16;;;14.98;48.16
38033;BME280;23841;48.524;1.342;2023-04-26T02:55:48;99230.97;;;14.97;48.17
38033;BME280;23841;48.524;1.342;2023-04-26T02:58:13;99231.94;;;14.96;48.20
38033;BME280;23841;48.524;1.342;2023-04-26T03:00:47;99230.97;;;14.97;48.33
38033;BME280;23841;48.524;1.342;2023-04-26T03:03:13;99232.78;;;14.97;48.28
38033;BME280;23841;48.524;1.342;2023-04-26T03:05:39;99237.28;;;14.96;48.39
38033;BME280;23841;48.524;1.342;2023-04-26T03:08:05;99236.47;;;14.94;48.15
38033;BME280;23841;48.524;1.342;2023-04-26T03:10:31;99239.97;;;14.96;48.04
38033;BME280;23841;48.524;1.342;2023-04-26T03:12:56;99236.47;;;14.94;48.06
38033;BME280;23841;48.524;1.342;2023-04-26T03:15:22;99230.25;;;14.94;48.29
38033;BME280;23841;48.524;1.342;2023-04-26T03:17:47;99230.19;;;14.95;48.28
38033;BME280;23841;48.524;1.342;2023-04-26T03:20:13;99231.03;;;14.96;48.27
38033;BME280;23841;48.524;1.342;2023-04-26T03:22:38;99212.38;;;14.94;48.21
38033;BME280;23841;48.524;1.342;2023-04-26T03:25:04;99208.84;;;14.94;48.25
38033;BME280;23841;48.524;1.342;2023-04-26T03:27:30;99203.50;;;14.94;48.29
38033;BME280;23841;48.524;1.342;2023-04-26T03:29:55;99202.59;;;14.93;48.21
38033;BME280;23841;48.524;1.342;2023-04-26T03:32:20;99209.78;;;14.93;48.35
38033;BME280;23841;48.524;1.342;2023-04-26T03:34:46;99204.44;;;14.93;48.20
38033;BME280;23841;48.524;1.342;2023-04-26T03:37:13;99213.31;;;14.93;48.41
38033;BME280;23841;48.524;1.342;2023-04-26T03:39:38;99206.25;;;14.92;48.22
38033;BME280;23841;48.524;1.342;2023-04-26T03:42:04;99193.78;;;14.91;48.23
38033;BME280;23841;48.524;1.342;2023-04-26T03:44:29;99206.25;;;14.92;48.23
38033;BME280;23841;48.524;1.342;2023-04-26T03:46:55;99204.50;;;14.91;48.21
38033;BME280;23841;48.524;1.342;2023-04-26T03:49:20;99202.75;;;14.90;48.22
38033;BME280;23841;48.524;1.342;2023-04-26T03:51:46;99208.91;;;14.92;48.39
38033;BME280;23841;48.524;1.342;2023-04-26T03:54:11;99205.41;;;14.90;48.43
38033;BME280;23841;48.524;1.342;2023-04-26T03:56:37;99196.53;;;14.90;48.31
38033;BME280;23841;48.524;1.342;2023-04-26T03:59:03;99203.63;;;14.91;48.13
38033;BME280;23841;48.524;1.342;2023-04-26T04:01:29;99206.38;;;14.89;48.25
38033;BME280;23841;48.524;1.342;2023-04-26T04:03:54;99218.84;;;14.89;48.37
38033;BME280;23841;48.524;1.342;2023-04-26T04:06:19;99212.66;;;14.88;48.25
38033;BME280;23841;48.524;1.342;2023-04-26T04:08:45;99214.50;;;14.86;48.36
38033;BME280;23841;48.524;1.342;2023-04-26T04:11:11;99210.91;;;14.87;48.12
38033;BME280;23841;48.524;1.342;2023-04-26T04:13:36;99212.72;;;14.87;48.31
38033;BME280;23841;48.524;1.342;2023-04-26T04:16:02;99213.56;;;14.87;48.28
38033;BME280;23841;48.524;1.342;2023-04-26T04:18:28;99216.25;;;14.87;48.36
38033;BME280;23841;48.524;1.342;2023-04-26T04:20:54;99212.72;;;14.87;48.20
38033;BME280;23841;48.524;1.342;2023-04-26T04:23:20;99212.72;;;14.87;48.18
38033;BME280;23841;48.524;1.342;2023-04-26T04:25:45;99217.16;;;14.86;48.28
38033;BME280;23841;48.524;1.342;2023-04-26T04:28:13;99220.81;;;14.85;48.27
38033;BME280;23841;48.524;1.342;2023-04-26T04:30:38;99219.00;;;14.85;48.42
38033;BME280;23841;48.524;1.342;2023-04-26T04:33:04;99219.84;;;14.86;48.23
38033;BME280;23841;48.524;1.342;2023-04-26T04:35:30;99216.31;;;14.85;48.46
38033;BME280;23841;48.524;1.342;2023-04-26T04:37:58;99210.09;;;14.85;48.38
38033;BME280;23841;48.524;1.342;2023-04-26T04:40:24;99217.16;;;14.86;48.18
38033;BME280;23841;48.524;1.342;2023-04-26T04:42:50;99213.72;;;14.84;48.23
38033;BME280;23841;48.524;1.342;2023-04-26T04:45:16;99219.06;;;14.84;48.41
38033;BME280;23841;48.524;1.342;2023-04-26T04:47:42;99221.72;;;14.84;48.27
38033;BME280;23841;48.524;1.342;2023-04-26T04:50:09;99219.06;;;14.84;48.31
38033;BME280;23841;48.524;1.342;2023-04-26T04:52:34;99219.97;;;14.83;48.22
38033;BME280;23841;48.524;1.342;2023-04-26T04:55:01;99218.28;;;14.80;48.40
38033;BME280;23841;48.524;1.342;2023-04-26T04:57:29;99222.66;;;14.83;48.23
38033;BME280;23841;48.524;1.342;2023-04-26T04:59:54;99221.88;;;14.79;48.35
38033;BME280;23841;48.524;1.342;2023-04-26T05:02:20;99217.31;;;14.83;48.20
38033;BME280;23841;48.524;1.342;2023-04-26T05:04:45;99219.13;;;14.82;48.38
38033;BME280;23841;48.524;1.342;2023-04-26T05:07:10;99220.09;;;14.80;48.23
38033;BME280;23841;48.524;1.342;2023-04-26T05:09:37;99219.19;;;14.81;48.34
38033;BME280;23841;48.524;1.342;2023-04-26T05:12:02;99220.91;;;14.82;48.41
38033;BME280;23841;48.524;1.342;2023-04-26T05:14:29;99221.03;;;14.79;48.27
38033;BME280;23841;48.524;1.342;2023-04-26T05:16:55;99223.72;;;14.79;48.41
38033;BME280;23841;48.524;1.342;2023-04-26T05:19:21;99216.53;;;14.79;48.22
38033;BME280;23841;48.524;1.342;2023-04-26T05:21:47;99224.63;;;14.78;48.29
38033;BME280;23841;48.524;1.342;2023-04-26T05:24:12;99222.91;;;14.77;48.36
38033;BME280;23841;48.524;1.342;2023-04-26T05:26:37;99222.91;;;14.77;48.22
38033;BME280;23841;48.524;1.342;2023-04-26T05:29:03;99223.84;;;14.76;48.29
38033;BME280;23841;48.524;1.342;2023-04-26T05:31:29;99222.91;;;14.77;48.19
38033;BME280;23841;48.524;1.342;2023-04-26T05:33:55;99231.00;;;14.75;48.37
38033;BME280;23841;48.524;1.342;2023-04-26T05:36:21;99230.09;;;14.75;48.43
38033;BME280;23841;48.524;1.342;2023-04-26T05:38:47;99229.19;;;14.76;48.24
38033;BME280;23841;48.524;1.342;2023-04-26T05:41:12;99224.75;;;14.75;48.22
38033;BME280;23841;48.524;1.342;2023-04-26T05:43:38;99223.00;;;14.74;48.26
38033;BME280;23841;48.524;1.342;2023-04-26T05:46:04;99229.31;;;14.73;48.32
38033;BME280;23841;48.524;1.342;2023-04-26T05:48:30;99220.41;;;14.72;48.18
38033;BME280;23841;48.524;1.342;2023-04-26T05:50:55;99216.00;;;14.71;48.33
38033;BME280;23841;48.524;1.342;2023-04-26T05:53:21;99216.88;;;14.72;48.03
38033;BME280;23841;48.524;1.342;2023-04-26T05:55:46;99215.06;;;14.72;48.37
38033;BME280;23841;48.524;1.342;2023-04-26T05:58:12;99219.59;;;14.70;48.26
38033;BME280;23841;48.524;1.342;2023-04-26T06:00:37;99224.06;;;14.70;48.21
38033;BME280;23841;48.524;1.342;2023-04-26T06:03:04;99225.81;;;14.71;48.15
38033;BME280;23841;48.524;1.342;2023-04-26T06:05:30;99228.50;;;14.71;48.27
38033;BME280;23841;48.524;1.342;2023-04-26T06:07:55;99239.19;;;14.71;48.12
38033;BME280;23841;48.524;1.342;2023-04-26T06:10:21;99232.09;;;14.70;48.19
38033;BME280;23841;48.524;1.342;2023-04-26T06:12:46;99231.22;;;14.69;48.35
38033;BME280;23841;48.524;1.342;2023-04-26T06:15:12;99224.13;;;14.68;48.21
38033;BME280;23841;48.524;1.342;2023-04-26T06:17:38;99228.63;;;14.67;48.37
38033;BME280;23841;48.524;1.342;2023-04-26T06:20:04;99235.72;;;14.68;48.48
38033;BME280;23841;48.524;1.342;2023-04-26T06:22:30;99231.28;;;14.67;48.13
38033;BME280;23841;48.524;1.342;2023-04-26T06:24:56;99234.88;;;14.66;48.37
38033;BME280;23841;48.524;1.342;2023-04-26T06:27:21;99237.56;;;14.66;48.32
38033;BME280;23841;48.524;1.342;2023-04-26T06:29:47;99240.31;;;14.65;48.19
38033;BME280;23841;48.524;1.342;2023-04-26T06:32:13;99241.16;;;14.65;48.13
38033;BME280;23841;48.524;1.342;2023-04-26T06:34:38;99236.84;;;14.63;48.30
38033;BME280;23841;48.524;1.342;2023-04-26T06:37:04;99239.50;;;14.63;48.34
38033;BME280;23841;48.524;1.342;2023-04-26T06:39:29;99235.88;;;14.64;48.25
38033;BME280;23841;48.524;1.342;2023-04-26T06:41:55;99237.69;;;14.63;48.28
38033;BME280;23841;48.524;1.342;2023-04-26T06:44:20;99242.19;;;14.63;48.29
38033;BME280;23841;48.524;1.342;2023-04-26T06:46:46;99240.41;;;14.62;48.23
38033;BME280;23841;48.524;1.342;2023-04-26T06:49:11;99234.19;;;14.61;48.40
38033;BME280;23841;48.524;1.342;2023-04-26T06:51:37;99234.19;;;14.61;48.53
38033;BME280;23841;48.524;1.342;2023-04-26T06:54:03;99242.25;;;14.60;48.53
38033;BME280;23841;48.524;1.342;2023-04-26T06:56:30;99242.22;;;14.61;48.51
38033;BME280;23841;48.524;1.342;2023-04-26T06:59:04;99241.38;;;14.59;48.57
38033;BME280;23841;48.524;1.342;2023-04-26T07:01:34;99238.72;;;14.59;48.58
38033;BME280;23841;48.524;1.342;2023-04-26T07:04:04;99243.25;;;14.57;48.45
38033;BME280;23841;48.524;1.342;2023-04-26T07:06:33;99239.63;;;14.58;48.58
38033;BME280;23841;48.524;1.342;2023-04-26T07:08:59;99236.16;;;14.56;48.44
38033;BME280;23841;48.524;1.342;2023-04-26T07:11:27;99231.75;;;14.55;48.54
38033;BME280;23841;48.524;1.342;2023-04-26T07:13:52;99231.75;;;14.55;48.62
38033;BME280;23841;48.524;1.342;2023-04-26T07:16:18;99226.38;;;14.55;48.62
38033;BME280;23841;48.524;1.342;2023-04-26T07:18:43;99230.94;;;14.53;48.59
38033;BME280;23841;48.524;1.342;2023-04-26T07:21:08;99223.84;;;14.52;48.62
38033;BME280;23841;48.524;1.342;2023-04-26T07:23:34;99226.53;;;14.52;48.74
38033;BME280;23841;48.524;1.342;2023-04-26T07:26:00;99213.16;;;14.52;48.54
38033;BME280;23841;48.524;1.342;2023-04-26T07:28:31;99216.75;;;14.51;48.62
38033;BME280;23841;48.524;1.342;2023-04-26T07:30:57;99219.63;;;14.46;48.81
38033;BME280;23841;48.524;1.342;2023-04-26T07:33:23;99218.63;;;14.49;48.81
38033;BME280;23841;48.524;1.342;2023-04-26T07:35:53;99223.03;;;14.50;48.83
38033;BME280;23841;48.524;1.342;2023-04-26T07:38:20;99221.31;;;14.49;48.85
38033;BME280;23841;48.524;1.342;2023-04-26T07:40:45;99216.03;;;14.47;48.72
38033;BME280;23841;48.524;1.342;2023-04-26T07:43:11;99236.50;;;14.47;48.93
38033;BME280;23841;48.524;1.342;2023-04-26T07:45:37;99225.81;;;14.47;48.87
38033;BME280;23841;48.524;1.342;2023-04-26T07:48:03;99230.25;;;14.48;48.83
38033;BME280;23841;48.524;1.342;2023-04-26T07:50:28;99218.84;;;14.43;48.97
38033;BME280;23841;48.524;1.342;2023-04-26T07:52:55;99229.41;;;14.46;48.96
38033;BME280;23841;48.524;1.342;2023-04-26T07:55:20;99222.34;;;14.45;48.84
38033;BME280;23841;48.524;1.342;2023-04-26T07:57:45;99225.81;;;14.47;49.05
38033;BME280;23841;48.524;1.342;2023-04-26T08:00:11;99218.72;;;14.46;49.08
38033;BME280;23841;48.524;1.342;2023-04-26T08:02:39;99213.38;;;14.46;48.92
38033;BME280;23841;48.524;1.342;2023-04-26T08:05:05;99209.00;;;14.45;49.04
38033;BME280;23841;48.524;1.342;2023-04-26T08:07:31;99213.38;;;14.46;49.11
38033;BME280;23841;48.524;1.342;2023-04-26T08:09:57;99223.28;;;14.44;49.07
38033;BME280;23841;48.524;1.342;2023-04-26T08:12:23;99217.94;;;14.44;48.92
38033;BME280;23841;48.524;1.342;2023-04-26T08:14:48;99219.75;;;14.43;48.97
38033;BME280;23841;48.524;1.342;2023-04-26T08:17:14;99217.09;;;14.42;49.00
38033;BME280;23841;48.524;1.342;2023-04-26T08:19:40;99218.00;;;14.42;49.11
38033;BME280;23841;48.524;1.342;2023-04-26T08:22:05;99207.31;;;14.42;49.08
38033;BME280;23841;48.524;1.342;2023-04-26T08:24:32;99204.69;;;14.41;49.14
38033;BME280;23841;48.524;1.342;2023-04-26T08:26:57;99205.56;;;14.41;49.26
38033;BME280;23841;48.524;1.342;2023-04-26T08:29:25;99207.38;;;14.41;49.34
38033;BME280;23841;48.524;1.342;2023-04-26T08:31:51;99206.41;;;14.42;49.08
38033;BME280;23841;48.524;1.342;2023-04-26T08:34:18;99211.75;;;14.42;49.11
38033;BME280;23841;48.524;1.342;2023-04-26T08:36:44;99211.75;;;14.42;49.30
38033;BME280;23841;48.524;1.342;2023-04-26T08:39:10;99215.31;;;14.42;49.37
38033;BME280;23841;48.524;1.342;2023-04-26T08:41:42;99225.09;;;14.43;49.24
38033;BME280;23841;48.524;1.342;2023-04-26T08:44:08;99224.19;;;14.43;49.21
38033;BME280;23841;48.524;1.342;2023-04-26T08:46:43;99225.94;;;14.44;49.25
38033;BME280;23841;48.524;1.342;2023-04-26T08:49:41;99218.84;;;14.43;49.16
38033;BME280;23841;48.524;1.342;2023-04-26T08:52:12;99223.22;;;14.45;49.29
38033;BME280;23841;48.524;1.342;2023-04-26T08:54:40;99215.25;;;14.44;49.29
38033;BME280;23841;48.524;1.342;2023-04-26T08:57:07;99210.78;;;14.44;49.54
38033;BME280;23841;48.524;1.342;2023-04-26T08:59:36;99215.25;;;14.44;49.41
38033;BME280;23841;48.524;1.342;2023-04-26T09:02:06;99213.50;;;14.43;49.49
38033;BME280;23841;48.524;1.342;2023-04-26T09:04:32;99210.78;;;14.44;49.50
38033;BME280;23841;48.524;1.342;2023-04-26T09:07:03;99212.59;;;14.44;49.42
38033;BME280;23841;48.524;1.342;2023-04-26T09:09:35;99202.81;;;14.43;49.39
38033;BME280;23841;48.524;1.342;2023-04-26T09:12:06;99202.81;;;14.43;49.41
38033;BME280;23841;48.524;1.342;2023-04-26T09:14:32;99198.28;;;14.45;49.54
38033;BME280;23841;48.524;1.342;2023-04-26T09:16:57;99193.00;;;14.43;49.63
38033;BME280;23841;48.524;1.342;2023-04-26T09:19:37;99198.34;;;14.43;49.51
38033;BME280;23841;48.524;1.342;2023-04-26T09:22:03;99200.97;;;14.45;49.65
38033;BME280;23841;48.524;1.342;2023-04-26T09:24:49;99193.88;;;14.44;49.58
38033;BME280;23841;48.524;1.342;2023-04-26T09:27:18;99204.56;;;14.44;49.85
38033;BME280;23841;48.524;1.342;2023-04-26T09:30:06;99199.22;;;14.44;49.70
38033;BME280;23841;48.524;1.342;2023-04-26T09:35:31;99198.34;;;14.43;49.76
38033;BME280;23841;48.524;1.342;2023-04-26T09:37:58;99197.41;;;14.44;49.88
38033;BME280;23841;48.524;1.342;2023-04-26T09:40:25;99199.22;;;14.44;49.97
38033;BME280;23841;48.524;1.342;2023-04-26T09:45:31;99192.88;;;14.46;50.34
38033;BME280;23841;48.524;1.342;2023-04-26T09:48:22;99187.53;;;14.46;50.50
38033;BME280;23841;48.524;1.342;2023-04-26T09:50:51;99194.66;;;14.46;50.71
38033;BME280;23841;48.524;1.342;2023-04-26T09:58:36;99183.06;;;14.47;50.76
38033;BME280;23841;48.524;1.342;2023-04-26T10:01:03;99174.13;;;14.48;51.10
38033;BME280;23841;48.524;1.342;2023-04-26T10:03:29;99185.66;;;14.48;51.12
38033;BME280;23841;48.524;1.342;2023-04-26T10:05:58;99190.09;;;14.49;51.07
38033;BME280;23841;48.524;1.342;2023-04-26T10:08:24;99194.56;;;14.49;51.24
38033;BME280;23841;48.524;1.342;2023-04-26T10:10:52;99186.56;;;14.49;51.37
38033;BME280;23841;48.524;1.342;2023-04-26T10:13:18;99187.41;;;14.49;51.46
38033;BME280;23841;48.524;1.342;2023-04-26T10:15:44;99184.69;;;14.51;51.17
38033;BME280;23841;48.524;1.342;2023-04-26T10:18:10;99190.03;;;14.51;51.25
38033;BME280;23841;48.524;1.342;2023-04-26T10:20:39;99189.16;;;14.50;51.29
38033;BME280;23841;48.524;1.342;2023-04-26T10:23:18;99181.09;;;14.52;51.39
38033;BME280;23841;48.524;1.342;2023-04-26T10:25:51;99186.44;;;14.52;51.33
38033;BME280;23841;48.524;1.342;2023-04-26T10:28:18;99187.28;;;14.52;51.43
38033;BME280;23841;48.524;1.342;2023-04-26T10:31:04;99183.75;;;14.52;51.13
38033;BME280;23841;48.524;1.342;2023-04-26T10:33:32;99187.28;;;14.52;51.04
38033;BME280;23841;48.524;1.342;2023-04-26T10:36:08;99180.25;;;14.50;50.99
38033;BME280;23841;48.524;1.342;2023-04-26T10:38:36;99188.19;;;14.53;51.09
38033;BME280;23841;48.524;1.342;2023-04-26T10:41:31;99184.53;;;14.54;51.24
38033;BME280;23841;48.524;1.342;2023-04-26T10:44:00;99182.84;;;14.53;51.03
38033;BME280;23841;48.524;1.342;2023-04-26T10:46:49;99183.75;;;14.52;51.20
38033;BME280;23841;48.524;1.342;2023-04-26T10:49:17;99178.34;;;14.54;51.10
38033;BME280;23841;48.524;1.342;2023-04-26T10:52:12;99173.91;;;14.52;51.06
38033;BME280;23841;48.524;1.342;2023-04-26T10:57:11;99174.75;;;14.55;51.14
38033;BME280;23841;48.524;1.342;2023-04-26T10:59:36;99169.41;;;14.55;51.05
38033;BME280;23841;48.524;1.342;2023-04-26T11:02:03;99170.25;;;14.55;51.26
38033;BME280;23841;48.524;1.342;2023-04-26T11:04:53;99166.66;;;14.56;51.14
38033;BME280;23841;48.524;1.342;2023-04-26T11:07:37;99166.66;;;14.56;51.17
38033;BME280;23841;48.524;1.342;2023-04-26T11:10:07;99169.34;;;14.56;51.20
38033;BME280;23841;48.524;1.342;2023-04-26T11:12:40;99164.06;;;14.55;51.29
38033;BME280;23841;48.524;1.342;2023-04-26T11:15:06;99162.19;;;14.57;51.39
38033;BME280;23841;48.524;1.342;2023-04-26T11:17:38;99164.84;;;14.57;51.15
38033;BME280;23841;48.524;1.342;2023-04-26T11:20:09;99164.00;;;14.56;51.28
38033;BME280;23841;48.524;1.342;2023-04-26T11:22:38;99165.78;;;14.56;51.22
38033;BME280;23841;48.524;1.342;2023-04-26T11:25:04;99163.94;;;14.58;51.17
38033;BME280;23841;48.524;1.342;2023-04-26T11:27:30;99161.25;;;14.58;51.18
38033;BME280;23841;48.524;1.342;2023-04-26T11:29:55;99159.44;;;14.58;51.35
38033;BME280;23841;48.524;1.342;2023-04-26T11:32:21;99158.50;;;14.59;51.33
38033;BME280;23841;48.524;1.342;2023-04-26T11:34:46;99156.75;;;14.58;51.30
38033;BME280;23841;48.524;1.342;2023-04-26T11:37:14;99147.81;;;14.59;51.31
38033;BME280;23841;48.524;1.342;2023-04-26T11:39:40;99153.16;;;14.59;51.43
38033;BME280;23841;48.524;1.342;2023-04-26T11:42:11;99156.66;;;14.61;51.34
38033;BME280;23841;48.524;1.342;2023-04-26T11:44:39;99157.53;;;14.62;51.35
38033;BME280;23841;48.524;1.342;2023-04-26T11:47:05;99148.66;;;14.61;51.37
38033;BME280;23841;48.524;1.342;2023-04-26T11:49:35;99151.28;;;14.63;51.32
38033;BME280;23841;48.524;1.342;2023-04-26T11:52:04;99153.06;;;14.62;51.27
38033;BME280;23841;48.524;1.342;2023-04-26T11:54:35;99145.03;;;14.62;51.27
38033;BME280;23841;48.524;1.342;2023-04-26T11:57:21;99153.91;;;14.64;51.46
38033;BME280;23841;48.524;1.342;2023-04-26T11:59:47;99145.03;;;14.62;51.49
38033;BME280;23841;48.524;1.342;2023-04-26T12:02:14;99159.25;;;14.64;51.32
38033;BME280;23841;48.524;1.342;2023-04-26T12:04:39;99150.31;;;14.64;51.68
38033;BME280;23841;48.524;1.342;2023-04-26T12:07:05;99148.53;;;14.64;51.58
38033;BME280;23841;48.524;1.342;2023-04-26T12:09:31;99153.00;;;14.64;51.37
38033;BME280;23841;48.524;1.342;2023-04-26T12:14:36;99148.47;;;14.66;51.44
38033;BME280;23841;48.524;1.342;2023-04-26T12:17:03;99159.09;;;14.67;51.63
38033;BME280;23841;48.524;1.342;2023-04-26T12:19:34;99147.56;;;14.67;51.44
38033;BME280;23841;48.524;1.342;2023-04-26T12:22:01;99148.41;;;14.67;51.64
38033;BME280;23841;48.524;1.342;2023-04-26T12:24:29;99149.28;;;14.68;51.61
38033;BME280;23841;48.524;1.342;2023-04-26T12:26:57;99146.53;;;14.70;51.43
38033;BME280;23841;48.524;1.342;2023-04-26T12:29:22;99150.16;;;14.68;51.56
38033;BME280;23841;48.524;1.342;2023-04-26T12:31:48;99150.16;;;14.68;51.64
38033;BME280;23841;48.524;1.342;2023-04-26T12:34:14;99153.63;;;14.71;51.67
38033;BME280;23841;48.524;1.342;2023-04-26T12:36:40;99145.59;;;14.71;51.68
38033;BME280;23841;48.524;1.342;2023-04-26T12:39:10;99154.53;;;14.71;51.86
38033;BME280;23841;48.524;1.342;2023-04-26T12:41:37;99151.78;;;14.73;51.69
38033;BME280;23841;48.524;1.342;2023-04-26T12:44:03;99151.78;;;14.73;51.71
38033;BME280;23841;48.524;1.342;2023-04-26T12:46:29;99141.94;;;14.73;51.58
38033;BME280;23841;48.524;1.342;2023-04-26T12:48:55;99153.50;;;14.74;51.61
38033;BME280;23841;48.524;1.342;2023-04-26T12:51:20;99160.59;;;14.75;51.78
38033;BME280;23841;48.524;1.342;2023-04-26T12:53:46;99155.25;;;14.75;51.88
38033;BME280;23841;48.524;1.342;2023-04-26T12:56:11;99166.88;;;14.74;51.78
38033;BME280;23841;48.524;1.342;2023-04-26T12:58:37;99162.34;;;14.76;51.87
38033;BME280;23841;48.524;1.342;2023-04-26T13:01:02;99156.13;;;14.75;51.89
38033;BME280;23841;48.524;1.342;2023-04-26T13:03:29;99152.50;;;14.76;51.98
38033;BME280;23841;48.524;1.342;2023-04-26T13:05:54;99150.72;;;14.77;51.87
38033;BME280;23841;48.524;1.342;2023-04-26T13:08:20;99147.91;;;14.80;52.31
38033;BME280;23841;48.524;1.342;2023-04-26T13:10:46;99142.91;;;14.93;53.11
38033;BME280;23841;48.524;1.342;2023-04-26T13:13:12;99142.31;;;15.07;52.80
38033;BME280;23841;48.524;1.342;2023-04-26T13:15:38;99140.06;;;15.18;52.39